메인 페이지
METAR-TAF:

METAR-TAF

공항 :

올버니, 뉴욕, 미국

위도: 42-44-53N, 경도: 073-48-06W, 고도: 87m

현재 날씨관측

예보는 22분 전, 23:51시(UTC)에 발표되었습니다.
7kt
온도 3°C
습도 60%
기압 1011 hPa
시정: 16.1km
고도 5000ft 상공 흐림

METAR: KALB 032351Z 27007KT 10SM OVC050 03/M04 A2984 RMK AO2 SLP109 T00281039 10061 20028 53012

시각: 19:13 (00:13 UTC)

예보

예보는 35분 전, 23:38시(UTC)에 발표되었습니다.
예보 대상 시간: 04일 00시부터 04일 24시까지 (UTC)
서북서5kt
시정: 10km
고도 4000ft 상공 구름 많음
일시적
04일 06시부터 04일 10시까지 (UTC)
고도 2500ft 상공 구름 많음
고도 4000ft 상공 흐림
04일 1000시부터 (UTC)
8kt, 순간 최대 풍속 18kt
시정: 10km
고도 2500ft 상공 구름 보통
고도 25000ft 상공 구름 보통
시계 내 소나기
04일 1400시부터 (UTC)
북서14kt, 순간 최대 풍속 25kt
시정: 10km
맑음

TAF: KALB 032338Z 0400/0424 30005KT P6SM BKN040 TEMPO 0406/0410 BKN025 OVC040 FM041000 35008G18KT P6SM VCSH SCT025 SCT250 FM041400 32014G25KT P6SM SKC

4,000개 이상의 공항 관측 자료 및 예보 (METAR 및 TAF 보고).

지도상에서 검색 가능한 기상관측소가 노란 점과 빨간 점으로 표시되어 있습니다.

기상관측소 명을 보려면 표시 위로 마우스를 이동하세요.

날씨 관측과 예보를 보려면 클릭하세요.

지도 변경 : 확대하려면 엑스 표시가 있는 녹색 버튼, 축소하려면 빼기 표시가 있는 녹색 버튼, 다음 페이지의 지도를 보려면 녹색 화살표를 클릭하세요.


METAR-TAF: